sensor_id;sensor_type;location;lat;lon;timestamp;pressure;altitude;pressure_sealevel;temperature;humidity
55759;BME280;41678;52.126;20.664;2023-04-06T00:02:05;100921.84;;;-0.27;72.48
55759;BME280;41678;52.126;20.664;2023-04-06T00:07:24;100913.94;;;-0.30;72.76
55759;BME280;41678;52.126;20.664;2023-04-06T00:12:44;100907.16;;;-0.26;72.71
55759;BME280;41678;52.126;20.664;2023-04-06T00:18:04;100897.63;;;-0.27;72.45
55759;BME280;41678;52.126;20.664;2023-04-06T00:23:23;100910.69;;;-0.24;73.11
55759;BME280;41678;52.126;20.664;2023-04-06T00:28:43;100902.19;;;-0.22;73.26
55759;BME280;41678;52.126;20.664;2023-04-06T00:34:02;100893.81;;;-0.16;72.96
55759;BME280;41678;52.126;20.664;2023-04-06T00:39:23;100895.38;;;-0.20;73.08
55759;BME280;41678;52.126;20.664;2023-04-06T00:44:42;100892.91;;;-0.17;73.18
55759;BME280;41678;52.126;20.664;2023-04-06T00:50:02;100890.28;;;-0.18;72.65
55759;BME280;41678;52.126;20.664;2023-04-06T00:55:22;100890.31;;;-0.17;73.03
55759;BME280;41678;52.126;20.664;2023-04-06T01:00:42;100876.00;;;-0.08;72.67
55759;BME280;41678;52.126;20.664;2023-04-06T01:06:08;100881.19;;;-0.08;72.85
55759;BME280;41678;52.126;20.664;2023-04-06T01:11:32;100882.19;;;-0.05;72.69
55759;BME280;41678;52.126;20.664;2023-04-06T01:16:53;100873.31;;;-0.11;72.80
55759;BME280;41678;52.126;20.664;2023-04-06T01:22:19;100883.97;;;-0.04;72.91
55759;BME280;41678;52.126;20.664;2023-04-06T01:28:05;100872.16;;;0.03;72.98
55759;BME280;41678;52.126;20.664;2023-04-06T01:33:43;100866.28;;;0.07;72.85
55759;BME280;41678;52.126;20.664;2023-04-06T01:39:07;100863.63;;;0.06;73.26
55759;BME280;41678;52.126;20.664;2023-04-06T01:44:30;100862.66;;;0.04;72.88
55759;BME280;41678;52.126;20.664;2023-04-06T01:49:59;100862.13;;;0.11;73.23
55759;BME280;41678;52.126;20.664;2023-04-06T01:55:20;100861.03;;;0.06;73.19
55759;BME280;41678;52.126;20.664;2023-04-06T02:01:12;100856.00;;;0.09;73.22
55759;BME280;41678;52.126;20.664;2023-04-06T02:06:43;100842.22;;;0.10;73.38
55759;BME280;41678;52.126;20.664;2023-04-06T02:12:06;100836.97;;;0.08;72.73
55759;BME280;41678;52.126;20.664;2023-04-06T02:17:27;100837.03;;;0.10;73.16
55759;BME280;41678;52.126;20.664;2023-04-06T02:22:47;100838.84;;;0.12;73.08
55759;BME280;41678;52.126;20.664;2023-04-06T02:28:06;100833.63;;;0.11;73.63
55759;BME280;41678;52.126;20.664;2023-04-06T02:33:26;100836.22;;;0.11;73.40
55759;BME280;41678;52.126;20.664;2023-04-06T02:38:45;100824.13;;;0.11;73.13
55759;BME280;41678;52.126;20.664;2023-04-06T02:44:08;100821.56;;;0.11;73.35
55759;BME280;41678;52.126;20.664;2023-04-06T02:49:40;100828.75;;;0.19;73.32
55759;BME280;41678;52.126;20.664;2023-04-06T02:54:59;100823.63;;;0.20;73.29
55759;BME280;41678;52.126;20.664;2023-04-06T03:00:22;100823.56;;;0.19;73.59
55759;BME280;41678;52.126;20.664;2023-04-06T03:05:43;100825.34;;;0.20;73.46
55759;BME280;41678;52.126;20.664;2023-04-06T03:11:03;100832.16;;;0.18;73.26
55759;BME280;41678;52.126;20.664;2023-04-06T03:16:29;100834.06;;;0.22;73.58
55759;BME280;41678;52.126;20.664;2023-04-06T03:21:50;100834.91;;;0.22;73.59
55759;BME280;41678;52.126;20.664;2023-04-06T03:27:12;100821.03;;;0.20;73.16
55759;BME280;41678;52.126;20.664;2023-04-06T03:32:34;100829.81;;;0.24;73.65
55759;BME280;41678;52.126;20.664;2023-04-06T03:37:54;100841.09;;;0.26;73.56
55759;BME280;41678;52.126;20.664;2023-04-06T03:43:15;100837.69;;;0.27;73.16
55759;BME280;41678;52.126;20.664;2023-04-06T03:48:35;100832.50;;;0.27;73.06
55759;BME280;41678;52.126;20.664;2023-04-06T03:53:58;100839.34;;;0.25;73.60
55759;BME280;41678;52.126;20.664;2023-04-06T03:59:17;100835.81;;;0.23;73.41
55759;BME280;41678;52.126;20.664;2023-04-06T04:04:37;100824.94;;;0.32;73.45
55759;BME280;41678;52.126;20.664;2023-04-06T04:09:57;100832.63;;;0.30;73.54
55759;BME280;41678;52.126;20.664;2023-04-06T04:15:16;100842.03;;;0.28;73.53
55759;BME280;41678;52.126;20.664;2023-04-06T04:20:36;100835.38;;;0.33;73.30
55759;BME280;41678;52.126;20.664;2023-04-06T04:25:56;100836.19;;;0.32;73.40
55759;BME280;41678;52.126;20.664;2023-04-06T04:31:15;100830.28;;;0.36;73.55
55759;BME280;41678;52.126;20.664;2023-04-06T04:36:39;100834.66;;;0.37;73.79
55759;BME280;41678;52.126;20.664;2023-04-06T04:42:02;100828.47;;;0.34;73.90
55759;BME280;41678;52.126;20.664;2023-04-06T04:47:24;100827.00;;;0.40;73.67
55759;BME280;41678;52.126;20.664;2023-04-06T04:52:44;100817.22;;;0.33;73.79
55759;BME280;41678;52.126;20.664;2023-04-06T04:58:09;100822.53;;;0.36;73.93
55759;BME280;41678;52.126;20.664;2023-04-06T05:03:47;100813.22;;;0.41;73.79
55759;BME280;41678;52.126;20.664;2023-04-06T05:09:09;100813.22;;;0.41;73.51
55759;BME280;41678;52.126;20.664;2023-04-06T05:14:29;100809.97;;;0.47;73.92
55759;BME280;41678;52.126;20.664;2023-04-06T05:19:50;100805.72;;;0.49;74.30
55759;BME280;41678;52.126;20.664;2023-04-06T05:25:15;100821.34;;;0.51;73.94
55759;BME280;41678;52.126;20.664;2023-04-06T05:30:36;100806.00;;;0.57;74.46
55759;BME280;41678;52.126;20.664;2023-04-06T05:35:56;100811.44;;;0.63;74.05
55759;BME280;41678;52.126;20.664;2023-04-06T05:41:17;100824.69;;;0.71;74.21
55759;BME280;41678;52.126;20.664;2023-04-06T05:46:36;100808.13;;;0.67;74.60
55759;BME280;41678;52.126;20.664;2023-04-06T05:51:57;100808.13;;;0.67;74.87
55759;BME280;41678;52.126;20.664;2023-04-06T05:57:17;100799.09;;;0.80;74.04
55759;BME280;41678;52.126;20.664;2023-04-06T06:02:38;100801.09;;;0.88;75.03
55759;BME280;41678;52.126;20.664;2023-04-06T06:08:02;100788.13;;;0.88;74.69
55759;BME280;41678;52.126;20.664;2023-04-06T06:13:23;100798.88;;;0.98;74.82
55759;BME280;41678;52.126;20.664;2023-04-06T06:18:44;100794.81;;;1.05;75.02
55759;BME280;41678;52.126;20.664;2023-04-06T06:24:04;100790.47;;;1.06;74.92
55759;BME280;41678;52.126;20.664;2023-04-06T06:29:24;100792.59;;;1.16;75.05
55759;BME280;41678;52.126;20.664;2023-04-06T06:34:43;100798.00;;;1.22;75.04
55759;BME280;41678;52.126;20.664;2023-04-06T06:40:05;100795.66;;;1.30;75.23
55759;BME280;41678;52.126;20.664;2023-04-06T06:45:27;100789.91;;;1.39;75.11
55759;BME280;41678;52.126;20.664;2023-04-06T06:50:48;100791.94;;;1.48;75.29
55759;BME280;41678;52.126;20.664;2023-04-06T06:56:08;100782.22;;;1.68;74.68
55759;BME280;41678;52.126;20.664;2023-04-06T07:01:28;100773.63;;;1.70;74.58
55759;BME280;41678;52.126;20.664;2023-04-06T07:06:48;100776.63;;;1.83;74.42
55759;BME280;41678;52.126;20.664;2023-04-06T07:12:08;100775.84;;;1.86;74.30
55759;BME280;41678;52.126;20.664;2023-04-06T07:17:28;100776.09;;;1.93;74.32
55759;BME280;41678;52.126;20.664;2023-04-06T07:22:47;100771.16;;;2.03;73.77
55759;BME280;41678;52.126;20.664;2023-04-06T07:28:07;100778.34;;;2.10;73.34
55759;BME280;41678;52.126;20.664;2023-04-06T07:33:27;100762.16;;;2.19;72.62
55759;BME280;41678;52.126;20.664;2023-04-06T07:38:49;100769.34;;;2.28;73.06
55759;BME280;41678;52.126;20.664;2023-04-06T07:44:10;100774.91;;;2.40;72.58
55759;BME280;41678;52.126;20.664;2023-04-06T07:49:30;100761.09;;;2.43;73.07
55759;BME280;41678;52.126;20.664;2023-04-06T07:54:52;100772.63;;;2.51;73.20
55759;BME280;41678;52.126;20.664;2023-04-06T08:00:12;100755.56;;;2.61;71.93
55759;BME280;41678;52.126;20.664;2023-04-06T08:05:33;100758.34;;;2.67;72.32
55759;BME280;41678;52.126;20.664;2023-04-06T08:10:52;100748.13;;;2.73;72.14
55759;BME280;41678;52.126;20.664;2023-04-06T08:16:12;100751.91;;;2.85;72.20
55759;BME280;41678;52.126;20.664;2023-04-06T08:21:31;100752.88;;;2.88;71.01
55759;BME280;41678;52.126;20.664;2023-04-06T08:26:51;100750.47;;;2.96;71.98
55759;BME280;41678;52.126;20.664;2023-04-06T08:32:11;100744.38;;;2.95;71.13
55759;BME280;41678;52.126;20.664;2023-04-06T08:37:31;100743.69;;;3.03;71.17
55759;BME280;41678;52.126;20.664;2023-04-06T08:42:54;100751.59;;;3.06;70.93
55759;BME280;41678;52.126;20.664;2023-04-06T08:48:14;100748.16;;;3.07;71.24
55759;BME280;41678;52.126;20.664;2023-04-06T08:53:36;100745.72;;;3.13;71.52
55759;BME280;41678;52.126;20.664;2023-04-06T08:58:57;100738.81;;;3.14;71.53
55759;BME280;41678;52.126;20.664;2023-04-06T09:04:17;100748.38;;;3.16;72.05
55759;BME280;41678;52.126;20.664;2023-04-06T09:09:36;100737.00;;;3.11;71.73
55759;BME280;41678;52.126;20.664;2023-04-06T09:14:57;100736.22;;;3.15;72.05
55759;BME280;41678;52.126;20.664;2023-04-06T09:20:23;100738.09;;;3.19;72.07
55759;BME280;41678;52.126;20.664;2023-04-06T09:25:45;100742.38;;;3.19;72.79
55759;BME280;41678;52.126;20.664;2023-04-06T09:31:04;100727.66;;;3.19;72.64
55759;BME280;41678;52.126;20.664;2023-04-06T09:36:31;100717.22;;;3.18;73.16
55759;BME280;41678;52.126;20.664;2023-04-06T09:41:53;100725.09;;;3.21;72.64
55759;BME280;41678;52.126;20.664;2023-04-06T09:47:15;100720.59;;;3.15;73.37
55759;BME280;41678;52.126;20.664;2023-04-06T09:52:48;100717.25;;;3.19;73.50
55759;BME280;41678;52.126;20.664;2023-04-06T09:58:13;100716.41;;;3.20;74.06
55759;BME280;41678;52.126;20.664;2023-04-06T10:03:56;100708.63;;;3.20;74.04
55759;BME280;41678;52.126;20.664;2023-04-06T10:09:24;100699.97;;;3.21;73.86
55759;BME280;41678;52.126;20.664;2023-04-06T10:14:44;100696.44;;;3.19;74.94
55759;BME280;41678;52.126;20.664;2023-04-06T10:25:57;100696.41;;;3.18;75.04
55759;BME280;41678;52.126;20.664;2023-04-06T10:31:24;100692.75;;;3.11;76.00
55759;BME280;41678;52.126;20.664;2023-04-06T10:36:45;100677.94;;;3.08;76.57
55759;BME280;41678;52.126;20.664;2023-04-06T10:42:06;100688.06;;;2.97;77.23
55759;BME280;41678;52.126;20.664;2023-04-06T10:47:25;100680.03;;;2.88;77.05
55759;BME280;41678;52.126;20.664;2023-04-06T10:52:45;100672.97;;;2.84;78.04
55759;BME280;41678;52.126;20.664;2023-04-06T10:58:08;100658.91;;;2.76;77.87
55759;BME280;41678;52.126;20.664;2023-04-06T11:03:28;100651.75;;;2.67;78.21
55759;BME280;41678;52.126;20.664;2023-04-06T11:08:48;100648.19;;;2.65;79.01
55759;BME280;41678;52.126;20.664;2023-04-06T11:14:09;100649.81;;;2.60;79.43
55759;BME280;41678;52.126;20.664;2023-04-06T11:19:31;100650.66;;;2.59;79.44
55759;BME280;41678;52.126;20.664;2023-04-06T11:24:51;100635.84;;;2.56;79.97
55759;BME280;41678;52.126;20.664;2023-04-06T11:30:11;100644.47;;;2.55;79.63
55759;BME280;41678;52.126;20.664;2023-04-06T11:35:31;100634.00;;;2.52;79.88
55759;BME280;41678;52.126;20.664;2023-04-06T11:40:53;100620.16;;;2.53;80.15
55759;BME280;41678;52.126;20.664;2023-04-06T11:46:17;100612.22;;;2.47;80.75
55759;BME280;41678;52.126;20.664;2023-04-06T11:51:38;100610.53;;;2.49;80.88
55759;BME280;41678;52.126;20.664;2023-04-06T11:56:58;100607.03;;;2.47;81.01
55759;BME280;41678;52.126;20.664;2023-04-06T12:02:18;100608.53;;;2.38;81.28
55759;BME280;41678;52.126;20.664;2023-04-06T12:07:38;100605.16;;;2.43;81.19
55759;BME280;41678;52.126;20.664;2023-04-06T12:12:57;100588.81;;;2.47;82.09
55759;BME280;41678;52.126;20.664;2023-04-06T12:18:16;100581.88;;;2.46;81.89
55759;BME280;41678;52.126;20.664;2023-04-06T12:23:36;100572.50;;;2.52;82.72
55759;BME280;41678;52.126;20.664;2023-04-06T12:28:56;100578.66;;;2.56;82.38
55759;BME280;41678;52.126;20.664;2023-04-06T12:34:15;100571.78;;;2.58;82.86
55759;BME280;41678;52.126;20.664;2023-04-06T12:39:35;100564.00;;;2.58;83.09
55759;BME280;41678;52.126;20.664;2023-04-06T12:44:54;100546.66;;;2.59;82.72
55759;BME280;41678;52.126;20.664;2023-04-06T12:50:14;100547.63;;;2.62;83.24
55759;BME280;41678;52.126;20.664;2023-04-06T12:55:34;100551.16;;;2.64;83.06
55759;BME280;41678;52.126;20.664;2023-04-06T13:00:54;100559.13;;;2.72;84.07
55759;BME280;41678;52.126;20.664;2023-04-06T13:06:15;100550.44;;;2.72;84.11
55759;BME280;41678;52.126;20.664;2023-04-06T13:11:35;100553.97;;;2.74;83.96
55759;BME280;41678;52.126;20.664;2023-04-06T13:16:55;100541.78;;;2.73;84.22
55759;BME280;41678;52.126;20.664;2023-04-06T13:22:14;100533.09;;;2.71;84.87
55759;BME280;41678;52.126;20.664;2023-04-06T13:27:34;100524.41;;;2.70;84.81
55759;BME280;41678;52.126;20.664;2023-04-06T13:32:55;100526.00;;;2.65;84.45
55759;BME280;41678;52.126;20.664;2023-04-06T13:38:15;100514.13;;;2.75;84.28
55759;BME280;41678;52.126;20.664;2023-04-06T13:43:35;100516.81;;;2.78;84.43
55759;BME280;41678;52.126;20.664;2023-04-06T13:48:54;100502.91;;;2.77;85.47
55759;BME280;41678;52.126;20.664;2023-04-06T13:54:14;100493.34;;;2.76;85.75
55759;BME280;41678;52.126;20.664;2023-04-06T13:59:35;100495.78;;;2.68;85.55
55759;BME280;41678;52.126;20.664;2023-04-06T14:04:55;100503.75;;;2.75;85.22
55759;BME280;41678;52.126;20.664;2023-04-06T14:10:15;100492.50;;;2.76;85.48
55759;BME280;41678;52.126;20.664;2023-04-06T14:15:34;100497.69;;;2.76;85.91
55759;BME280;41678;52.126;20.664;2023-04-06T14:20:55;100482.09;;;2.76;85.95
55759;BME280;41678;52.126;20.664;2023-04-06T14:26:15;100492.38;;;2.73;85.19
55759;BME280;41678;52.126;20.664;2023-04-06T14:31:36;100476.88;;;2.76;85.10
55759;BME280;41678;52.126;20.664;2023-04-06T14:36:55;100475.25;;;2.81;86.94
55759;BME280;41678;52.126;20.664;2023-04-06T14:42:15;100470.84;;;2.77;86.08
55759;BME280;41678;52.126;20.664;2023-04-06T14:47:34;100464.78;;;2.78;86.28
55759;BME280;41678;52.126;20.664;2023-04-06T14:52:55;100466.47;;;2.76;85.52
55759;BME280;41678;52.126;20.664;2023-04-06T14:58:15;100469.16;;;2.79;85.65
55759;BME280;41678;52.126;20.664;2023-04-06T15:03:34;100470.00;;;2.78;85.87
55759;BME280;41678;52.126;20.664;2023-04-06T15:08:54;100470.97;;;2.81;85.70
55759;BME280;41678;52.126;20.664;2023-04-06T15:14:13;100464.81;;;2.79;85.89
55759;BME280;41678;52.126;20.664;2023-04-06T15:19:33;100454.47;;;2.81;85.50
55759;BME280;41678;52.126;20.664;2023-04-06T15:24:53;100455.25;;;2.78;85.36
55759;BME280;41678;52.126;20.664;2023-04-06T15:30:13;100458.13;;;2.89;86.02
55759;BME280;41678;52.126;20.664;2023-04-06T15:35:33;100452.69;;;2.80;85.48
55759;BME280;41678;52.126;20.664;2023-04-06T15:40:53;100453.78;;;2.88;87.16
55759;BME280;41678;52.126;20.664;2023-04-06T15:46:13;100454.53;;;2.84;86.38
55759;BME280;41678;52.126;20.664;2023-04-06T15:51:32;100448.38;;;2.80;86.39
55759;BME280;41678;52.126;20.664;2023-04-06T15:56:52;100449.25;;;2.81;86.81
55759;BME280;41678;52.126;20.664;2023-04-06T16:02:11;100445.75;;;2.79;86.08
55759;BME280;41678;52.126;20.664;2023-04-06T16:07:31;100446.66;;;2.81;86.21
55759;BME280;41678;52.126;20.664;2023-04-06T16:12:53;100450.97;;;2.80;86.60
55759;BME280;41678;52.126;20.664;2023-04-06T16:18:12;100449.03;;;2.72;86.07
55759;BME280;41678;52.126;20.664;2023-04-06T16:23:32;100450.06;;;2.78;86.85
55759;BME280;41678;52.126;20.664;2023-04-06T16:28:52;100450.88;;;2.76;86.31
55759;BME280;41678;52.126;20.664;2023-04-06T16:34:13;100450.72;;;2.69;85.85
55759;BME280;41678;52.126;20.664;2023-04-06T16:39:33;100448.28;;;2.76;86.87
55759;BME280;41678;52.126;20.664;2023-04-06T16:44:52;100450.72;;;2.69;86.53
55759;BME280;41678;52.126;20.664;2023-04-06T16:50:12;100443.78;;;2.68;86.47
55759;BME280;41678;52.126;20.664;2023-04-06T16:55:31;100442.19;;;2.74;86.60
55759;BME280;41678;52.126;20.664;2023-04-06T17:00:50;100449.88;;;2.71;86.44
55759;BME280;41678;52.126;20.664;2023-04-06T17:06:10;100433.44;;;2.72;86.17
55759;BME280;41678;52.126;20.664;2023-04-06T17:11:29;100449.88;;;2.69;86.34
55759;BME280;41678;52.126;20.664;2023-04-06T17:16:49;100443.81;;;2.70;87.08
55759;BME280;41678;52.126;20.664;2023-04-06T17:22:09;100447.19;;;2.66;86.69
55759;BME280;41678;52.126;20.664;2023-04-06T17:27:29;100458.47;;;2.66;86.73
55759;BME280;41678;52.126;20.664;2023-04-06T17:32:48;100458.53;;;2.69;87.39
55759;BME280;41678;52.126;20.664;2023-04-06T17:38:08;100454.91;;;2.63;86.83
55759;BME280;41678;52.126;20.664;2023-04-06T17:43:28;100460.19;;;2.66;86.97
55759;BME280;41678;52.126;20.664;2023-04-06T17:48:47;100460.22;;;2.67;87.36
55759;BME280;41678;52.126;20.664;2023-04-06T17:54:07;100455.84;;;2.66;87.10
55759;BME280;41678;52.126;20.664;2023-04-06T17:59:28;100448.78;;;2.59;87.29
55759;BME280;41678;52.126;20.664;2023-04-06T18:04:51;100460.75;;;2.54;87.30
55759;BME280;41678;52.126;20.664;2023-04-06T18:10:11;100450.66;;;2.66;87.75
55759;BME280;41678;52.126;20.664;2023-04-06T18:15:33;100457.31;;;2.55;87.54
55759;BME280;41678;52.126;20.664;2023-04-06T18:20:54;100449.50;;;2.55;87.32
55759;BME280;41678;52.126;20.664;2023-04-06T18:26:16;100448.78;;;2.59;87.54
55759;BME280;41678;52.126;20.664;2023-04-06T18:31:36;100442.00;;;2.66;87.57
55759;BME280;41678;52.126;20.664;2023-04-06T18:36:56;100439.22;;;2.58;87.76
55759;BME280;41678;52.126;20.664;2023-04-06T18:42:16;100446.97;;;2.57;87.46
55759;BME280;41678;52.126;20.664;2023-04-06T18:47:37;100444.44;;;2.60;88.02
55759;BME280;41678;52.126;20.664;2023-04-06T18:52:57;100439.97;;;2.54;87.76
55759;BME280;41678;52.126;20.664;2023-04-06T18:58:17;100443.47;;;2.56;87.88
55759;BME280;41678;52.126;20.664;2023-04-06T19:03:36;100428.81;;;2.58;88.10
55759;BME280;41678;52.126;20.664;2023-04-06T19:08:57;100429.72;;;2.60;88.66
55759;BME280;41678;52.126;20.664;2023-04-06T19:14:17;100418.47;;;2.61;88.37
55759;BME280;41678;52.126;20.664;2023-04-06T19:19:36;100432.16;;;2.52;88.30
55759;BME280;41678;52.126;20.664;2023-04-06T19:24:56;100422.72;;;2.58;88.79
55759;BME280;41678;52.126;20.664;2023-04-06T19:30:15;100422.69;;;2.56;88.31
55759;BME280;41678;52.126;20.664;2023-04-06T19:35:35;100413.31;;;2.63;88.64
55759;BME280;41678;52.126;20.664;2023-04-06T19:40:54;100408.09;;;2.61;89.35
55759;BME280;41678;52.126;20.664;2023-04-06T19:46:14;100415.72;;;2.55;88.61
55759;BME280;41678;52.126;20.664;2023-04-06T19:51:35;100408.09;;;2.61;89.06
55759;BME280;41678;52.126;20.664;2023-04-06T19:56:54;100403.63;;;2.57;89.09
55759;BME280;41678;52.126;20.664;2023-04-06T20:02:15;100401.16;;;2.62;89.10
55759;BME280;41678;52.126;20.664;2023-04-06T20:07:34;100394.19;;;2.59;89.39
55759;BME280;41678;52.126;20.664;2023-04-06T20:12:57;100389.66;;;2.52;88.64
55759;BME280;41678;52.126;20.664;2023-04-06T20:18:17;100391.28;;;2.47;88.67
55759;BME280;41678;52.126;20.664;2023-04-06T20:23:37;100367.16;;;2.52;89.33
55759;BME280;41678;52.126;20.664;2023-04-06T20:28:57;100367.25;;;2.57;89.05
55759;BME280;41678;52.126;20.664;2023-04-06T20:34:16;100383.78;;;2.61;88.98
55759;BME280;41678;52.126;20.664;2023-04-06T20:39:36;100375.03;;;2.55;89.34
55759;BME280;41678;52.126;20.664;2023-04-06T20:44:56;100369.78;;;2.54;89.01
55759;BME280;41678;52.126;20.664;2023-04-06T20:50:16;100365.59;;;2.59;89.05
55759;BME280;41678;52.126;20.664;2023-04-06T20:55:40;100376.78;;;2.57;89.11
55759;BME280;41678;52.126;20.664;2023-04-06T21:00:59;100374.34;;;2.64;89.83
55759;BME280;41678;52.126;20.664;2023-04-06T21:06:19;100364.69;;;2.59;89.29
55759;BME280;41678;52.126;20.664;2023-04-06T21:11:40;100370.19;;;2.73;89.83
55759;BME280;41678;52.126;20.664;2023-04-06T21:16:59;100379.50;;;2.61;89.89
55759;BME280;41678;52.126;20.664;2023-04-06T21:22:19;100388.13;;;2.60;90.16
55759;BME280;41678;52.126;20.664;2023-04-06T21:27:38;100376.06;;;2.64;90.07
55759;BME280;41678;52.126;20.664;2023-04-06T21:32:58;100360.38;;;2.59;89.49
55759;BME280;41678;52.126;20.664;2023-04-06T21:38:17;100363.22;;;2.70;89.80
55759;BME280;41678;52.126;20.664;2023-04-06T21:43:36;100360.56;;;2.68;89.70
55759;BME280;41678;52.126;20.664;2023-04-06T21:48:56;100344.97;;;2.68;90.06
55759;BME280;41678;52.126;20.664;2023-04-06T21:54:16;100352.13;;;2.79;90.43
55759;BME280;41678;52.126;20.664;2023-04-06T21:59:35;100338.22;;;2.77;90.50
55759;BME280;41678;52.126;20.664;2023-04-06T22:04:55;100341.63;;;2.74;90.11
55759;BME280;41678;52.126;20.664;2023-04-06T22:10:14;100335.63;;;2.77;90.07
55759;BME280;41678;52.126;20.664;2023-04-06T22:15:34;100337.31;;;2.75;90.69
55759;BME280;41678;52.126;20.664;2023-04-06T22:20:54;100328.59;;;2.73;90.00
55759;BME280;41678;52.126;20.664;2023-04-06T22:26:13;100313.03;;;2.74;90.57
55759;BME280;41678;52.126;20.664;2023-04-06T22:31:33;100306.00;;;2.70;90.14
55759;BME280;41678;52.126;20.664;2023-04-06T22:36:53;100313.81;;;2.72;89.82
55759;BME280;41678;52.126;20.664;2023-04-06T22:42:12;100315.66;;;2.76;90.30
55759;BME280;41678;52.126;20.664;2023-04-06T22:47:32;100312.00;;;2.67;90.18
55759;BME280;41678;52.126;20.664;2023-04-06T22:52:52;100299.31;;;2.81;90.90
55759;BME280;41678;52.126;20.664;2023-04-06T22:58:11;100288.88;;;2.80;90.91
55759;BME280;41678;52.126;20.664;2023-04-06T23:03:30;100286.22;;;2.78;90.85
55759;BME280;41678;52.126;20.664;2023-04-06T23:08:50;100288.06;;;2.82;90.87
55759;BME280;41678;52.126;20.664;2023-04-06T23:14:09;100274.13;;;2.80;91.07
55759;BME280;41678;52.126;20.664;2023-04-06T23:19:29;100273.22;;;2.77;90.71
55759;BME280;41678;52.126;20.664;2023-04-06T23:24:49;100272.47;;;2.84;90.67
55759;BME280;41678;52.126;20.664;2023-04-06T23:30:09;100260.31;;;2.83;91.08
55759;BME280;41678;52.126;20.664;2023-04-06T23:35:28;100272.47;;;2.84;91.05
55759;BME280;41678;52.126;20.664;2023-04-06T23:40:48;100261.31;;;2.88;91.31
55759;BME280;41678;52.126;20.664;2023-04-06T23:46:08;100251.81;;;2.90;91.25
55759;BME280;41678;52.126;20.664;2023-04-06T23:51:27;100247.38;;;2.86;91.54
55759;BME280;41678;52.126;20.664;2023-04-06T23:56:47;100241.31;;;2.87;90.84
